createdAt,value
2019-03-16T00:04:01.161Z,8.76
2019-03-16T00:08:55.024Z,8.76
2019-03-16T00:13:48.889Z,8.82
2019-03-16T00:18:43.055Z,8.91
2019-03-16T00:23:36.988Z,8.96
2019-03-16T00:28:30.841Z,9.02
2019-03-16T00:33:24.736Z,9.02
2019-03-16T00:38:18.595Z,9.03
2019-03-16T00:43:12.441Z,8.98
2019-03-16T00:48:06.292Z,8.93
2019-03-16T00:53:00.318Z,8.93
2019-03-16T00:57:54.177Z,8.91
2019-03-16T01:02:48.052Z,8.79
2019-03-16T01:07:42.182Z,8.73
2019-03-16T01:12:36.347Z,8.69
2019-03-16T01:17:30.269Z,8.64
2019-03-16T01:22:24.248Z,8.63
2019-03-16T01:27:18.142Z,8.56
2019-03-16T01:32:12.113Z,8.50
2019-03-16T01:37:06.373Z,8.43
2019-03-16T01:42:00.228Z,8.39
2019-03-16T01:46:54.403Z,8.29
2019-03-16T01:51:48.254Z,8.28
2019-03-16T01:56:42.105Z,8.26
2019-03-16T02:01:36.093Z,8.24
2019-03-16T02:06:29.964Z,8.15
2019-03-16T02:11:23.895Z,8.21
2019-03-16T02:16:17.755Z,8.20
2019-03-16T02:21:11.654Z,8.15
2019-03-16T02:26:05.493Z,8.15
2019-03-16T02:30:59.364Z,8.09
2019-03-16T02:35:53.241Z,8.12
2019-03-16T02:40:47.088Z,8.06
2019-03-16T02:45:40.965Z,8.06
2019-03-16T02:50:34.859Z,8.06
2019-03-16T02:55:28.760Z,8.06
2019-03-16T03:00:22.746Z,8.06
2019-03-16T03:05:16.579Z,8.10
2019-03-16T03:10:12.726Z,8.07
2019-03-16T03:15:07.573Z,8.09
2019-03-16T03:20:01.430Z,8.09
2019-03-16T03:24:55.338Z,8.07
2019-03-16T03:29:49.158Z,8.04
2019-03-16T03:34:43.004Z,8.03
2019-03-16T03:39:36.869Z,8.02
2019-03-16T03:44:30.732Z,7.97
2019-03-16T03:49:24.567Z,7.95
2019-03-16T03:54:18.445Z,7.95
2019-03-16T03:59:12.378Z,8.00
2019-03-16T04:04:14.964Z,8.00
2019-03-16T04:09:03.717Z,8.00
2019-03-16T04:13:57.594Z,8.01
2019-03-16T04:18:52.115Z,8.03
2019-03-16T04:23:46.034Z,8.05
2019-03-16T04:28:39.893Z,8.07
2019-03-16T04:33:33.733Z,8.08
2019-03-16T04:38:27.598Z,7.95
2019-03-16T04:43:21.555Z,7.84
2019-03-16T04:48:15.438Z,7.88
2019-03-16T04:53:09.275Z,7.95
2019-03-16T04:58:03.145Z,7.91
2019-03-16T05:02:56.996Z,7.84
2019-03-16T05:07:50.850Z,7.79
2019-03-16T05:12:44.693Z,7.78
2019-03-16T05:17:38.533Z,7.74
2019-03-16T05:22:32.394Z,7.75
2019-03-16T05:27:26.286Z,7.79
2019-03-16T05:32:20.136Z,7.84
2019-03-16T05:37:13.986Z,7.85
2019-03-16T05:42:07.829Z,7.88
2019-03-16T05:47:01.729Z,7.93
2019-03-16T05:51:55.593Z,7.92
2019-03-16T05:56:49.478Z,7.88
2019-03-16T06:01:43.313Z,7.92
2019-03-16T06:06:37.169Z,7.93
2019-03-16T06:11:31.012Z,7.96
2019-03-16T06:16:24.959Z,8.00
2019-03-16T06:21:18.789Z,7.98
2019-03-16T06:26:12.688Z,8.04
2019-03-16T06:31:06.621Z,8.04
2019-03-16T06:36:00.480Z,8.08
2019-03-16T06:40:54.360Z,8.08
2019-03-16T06:45:48.217Z,8.09
2019-03-16T06:50:42.069Z,8.05
2019-03-16T06:55:35.936Z,8.09
2019-03-16T07:00:29.901Z,8.09
2019-03-16T07:05:37.260Z,8.15
2019-03-16T07:10:19.508Z,8.28
2019-03-16T07:15:14.457Z,8.32
2019-03-16T07:20:10.916Z,8.49
2019-03-16T07:25:05.532Z,8.73
2019-03-16T07:29:59.398Z,9.24
2019-03-16T07:34:53.240Z,9.52
2019-03-16T07:39:47.297Z,9.73
2019-03-16T07:44:41.145Z,10.19
2019-03-16T07:49:35.019Z,10.34
2019-03-16T07:54:31.251Z,10.42
2019-03-16T07:59:24.691Z,10.53
2019-03-16T08:04:18.556Z,10.67
2019-03-16T08:09:12.444Z,10.69
2019-03-16T08:14:06.266Z,10.86
2019-03-16T08:19:00.124Z,10.87
2019-03-16T08:23:54.023Z,10.74
2019-03-16T08:28:47.982Z,10.77
2019-03-16T08:33:41.833Z,10.83
2019-03-16T08:38:35.749Z,10.86
2019-03-16T08:43:29.637Z,10.99
2019-03-16T08:48:23.650Z,11.01
2019-03-16T08:53:17.587Z,10.82
2019-03-16T08:58:11.537Z,10.68
2019-03-16T09:03:05.542Z,10.60
2019-03-16T09:07:59.425Z,10.67
2019-03-16T09:12:55.187Z,10.70
2019-03-16T09:17:49.050Z,10.72
2019-03-16T09:22:43.041Z,10.78
2019-03-16T09:27:36.992Z,10.76
2019-03-16T09:32:30.853Z,11.64
2019-03-16T09:37:24.826Z,11.94
2019-03-16T09:42:18.695Z,12.43
2019-03-16T09:47:12.678Z,12.60
2019-03-16T09:52:06.583Z,12.76
2019-03-16T09:57:01.839Z,12.80
2019-03-16T10:01:55.934Z,12.45
2019-03-16T10:06:49.787Z,12.32
2019-03-16T10:11:43.713Z,12.18
2019-03-16T10:16:37.667Z,11.89
2019-03-16T10:21:31.540Z,12.19
2019-03-16T10:26:25.572Z,11.98
2019-03-16T10:31:19.450Z,11.88
2019-03-16T10:36:13.289Z,11.94
2019-03-16T10:41:07.183Z,11.92
2019-03-16T10:46:01.045Z,11.97
2019-03-16T10:50:54.936Z,12.41
2019-03-16T10:55:48.809Z,12.24
2019-03-16T11:00:42.692Z,12.18
2019-03-16T11:05:36.570Z,12.17
2019-03-16T11:10:30.466Z,12.29
2019-03-16T11:15:24.388Z,12.18
2019-03-16T11:20:18.416Z,12.72
2019-03-16T11:25:15.012Z,12.51
2019-03-16T11:30:13.554Z,12.22
2019-03-16T11:35:09.123Z,12.22
2019-03-16T11:40:06.817Z,12.26
2019-03-16T11:45:00.696Z,12.26
2019-03-16T11:49:54.601Z,12.39
2019-03-16T11:54:48.525Z,12.23
2019-03-16T11:59:42.406Z,12.04
2019-03-16T12:04:36.302Z,11.91
2019-03-16T12:09:30.176Z,12.00
2019-03-16T12:14:24.037Z,12.22
2019-03-16T12:19:17.940Z,12.36
2019-03-16T12:24:11.981Z,12.03
2019-03-16T12:29:05.846Z,12.06
2019-03-16T12:33:59.724Z,11.96
2019-03-16T12:38:53.698Z,11.83
2019-03-16T12:43:47.583Z,11.70
2019-03-16T12:48:41.459Z,11.79
2019-03-16T12:53:35.451Z,11.70
2019-03-16T12:58:29.463Z,11.71
2019-03-16T13:03:23.326Z,11.67
2019-03-16T13:08:17.234Z,11.61
2019-03-16T13:13:11.250Z,11.67
2019-03-16T13:18:05.180Z,11.61
2019-03-16T13:22:59.345Z,11.60
2019-03-16T13:27:53.227Z,11.59
2019-03-16T13:32:47.227Z,11.62
2019-03-16T13:37:41.305Z,11.65
2019-03-16T13:42:35.299Z,11.70
2019-03-16T13:47:29.184Z,11.80
2019-03-16T13:52:23.133Z,11.79
2019-03-16T13:57:16.978Z,11.75
2019-03-16T14:02:10.863Z,11.63
2019-03-16T14:07:05.310Z,11.63
2019-03-16T14:11:59.288Z,11.71
2019-03-16T14:16:53.150Z,11.63
2019-03-16T14:21:47.017Z,11.75
2019-03-16T14:26:42.672Z,12.01
2019-03-16T14:31:36.692Z,12.08
2019-03-16T14:36:30.592Z,12.33
2019-03-16T14:41:24.493Z,12.48
2019-03-16T14:46:18.881Z,12.71
2019-03-16T14:51:12.764Z,12.34
2019-03-16T14:56:06.656Z,12.07
2019-03-16T15:01:00.883Z,12.03
2019-03-16T15:05:54.830Z,12.15
2019-03-16T15:10:48.968Z,11.89
2019-03-16T15:15:42.937Z,11.78
2019-03-16T15:20:36.813Z,11.85
2019-03-16T15:25:30.885Z,12.00
2019-03-16T15:30:24.735Z,12.31
2019-03-16T15:35:18.618Z,12.31
2019-03-16T15:40:13.694Z,12.16
2019-03-16T15:45:28.627Z,11.90
2019-03-16T15:50:22.513Z,12.13
2019-03-16T15:55:16.612Z,12.04
2019-03-16T16:00:15.081Z,11.96
2019-03-16T16:05:09.441Z,11.86
2019-03-16T16:10:08.712Z,11.73
2019-03-16T16:15:05.492Z,11.73
2019-03-16T16:19:59.576Z,11.73
2019-03-16T16:24:53.617Z,11.72
2019-03-16T16:29:47.495Z,11.70
2019-03-16T16:34:41.530Z,11.66
2019-03-16T16:39:35.436Z,11.61
2019-03-16T16:44:29.537Z,11.60
2019-03-16T16:49:23.417Z,11.51
2019-03-16T16:54:17.422Z,11.47
2019-03-16T16:59:11.296Z,11.47
2019-03-16T17:04:05.297Z,11.45
2019-03-16T17:08:59.165Z,11.47
2019-03-16T17:13:53.136Z,11.40
2019-03-16T17:18:47.127Z,11.41
2019-03-16T17:23:41.044Z,11.39
2019-03-16T17:28:35.167Z,11.34
2019-03-16T17:33:29.148Z,11.28
2019-03-16T17:38:23.021Z,11.27
2019-03-16T17:43:17.036Z,11.23
2019-03-16T17:48:11.068Z,11.19
2019-03-16T17:53:04.971Z,11.21
2019-03-16T17:57:58.822Z,11.15
2019-03-16T18:02:52.880Z,11.18
2019-03-16T18:07:46.719Z,11.16
2019-03-16T18:12:40.588Z,11.16
2019-03-16T18:17:34.485Z,11.14
2019-03-16T18:22:28.377Z,11.10
2019-03-16T18:27:22.278Z,11.14
2019-03-16T18:32:16.306Z,11.09
2019-03-16T18:37:10.274Z,11.10
2019-03-16T18:42:04.222Z,11.03
2019-03-16T18:46:58.204Z,11.03
2019-03-16T18:51:52.114Z,11.04
2019-03-16T18:56:46.114Z,11.03
2019-03-16T19:01:40.018Z,11.00
2019-03-16T19:06:33.896Z,11.02
2019-03-16T19:11:27.928Z,10.98
2019-03-16T19:16:21.801Z,10.98
2019-03-16T19:21:15.684Z,10.95
2019-03-16T19:26:09.705Z,10.93
2019-03-16T19:31:03.816Z,10.90
2019-03-16T19:35:57.780Z,10.88
2019-03-16T19:40:51.784Z,10.81
2019-03-16T19:45:45.645Z,10.79
2019-03-16T19:50:39.509Z,10.76
2019-03-16T19:55:33.498Z,10.75
2019-03-16T20:00:27.365Z,10.72
2019-03-16T20:05:21.981Z,10.69
2019-03-16T20:10:19.899Z,10.65
2019-03-16T20:15:14.413Z,10.63
2019-03-16T20:20:09.986Z,10.56
2019-03-16T20:25:04.324Z,10.50
2019-03-16T20:29:58.423Z,10.44
2019-03-16T20:34:52.340Z,10.36
2019-03-16T20:39:46.340Z,10.34
2019-03-16T20:44:40.364Z,10.33
2019-03-16T20:49:34.382Z,10.28
2019-03-16T20:54:28.392Z,10.29
2019-03-16T20:59:22.310Z,10.29
2019-03-16T21:04:16.213Z,10.29
2019-03-16T21:09:10.156Z,10.25
2019-03-16T21:14:04.253Z,10.23
2019-03-16T21:20:26.413Z,10.24
2019-03-16T21:25:20.569Z,10.16
2019-03-16T21:30:15.955Z,10.09
2019-03-16T21:35:09.995Z,10.12
2019-03-16T21:40:09.540Z,10.10
2019-03-16T21:45:06.116Z,10.09
2019-03-16T21:50:00.359Z,10.11
2019-03-16T21:54:54.629Z,10.08
2019-03-16T21:59:48.758Z,10.04
2019-03-16T22:04:42.650Z,10.03
2019-03-16T22:09:36.753Z,10.03
2019-03-16T22:14:30.623Z,10.06
2019-03-16T22:19:24.639Z,10.06
2019-03-16T22:24:18.548Z,10.10
2019-03-16T22:29:12.479Z,10.12
2019-03-16T22:34:06.444Z,10.12
2019-03-16T22:39:00.323Z,10.20
2019-03-16T22:43:54.269Z,10.29
2019-03-16T22:48:48.239Z,10.27
2019-03-16T22:53:42.099Z,10.33
2019-03-16T22:58:36.097Z,10.35
2019-03-16T23:03:30.046Z,10.43
2019-03-16T23:08:23.931Z,10.49
2019-03-16T23:13:17.910Z,10.59
2019-03-16T23:21:32.835Z,10.66
2019-03-16T23:26:38.043Z,10.65
2019-03-16T23:31:22.591Z,10.75
2019-03-16T23:36:16.457Z,10.70
2019-03-16T23:41:10.462Z,10.82
2019-03-16T23:46:04.324Z,10.84
2019-03-16T23:50:58.313Z,10.86
2019-03-16T23:55:52.241Z,10.86
